Liberta — V2CM3 — position and weather

sailwx.info

Track history (hours):
 
Tides and Currents Weather Stations Pressure Air Temp Water Temp Dewpoint Dewpoint Depression Visibility Wind Speed Wind Dir Waves Ship Positions

Liberta

Last reported at 2016-Feb-08 14:33 UTC. Time now 2016-Feb-09 20:41 UTC.
Position N 35°57' W 005°08'.

Length 138 m; draft 4.9 m.

Type: Cargo ship. MMSI: 305043000.

Date/timePositionNaut miles runAvg speedWind from/ knotsBaromVisibWave heightAir tempDewpointWater temp
2016-Feb-08 14:33N 35°57' W 005°08'1110.8
2016-Feb-08 13:34N 36°02' W 005°19'7 5.0
2016-Feb-08 12:11N 36°09' W 005°22'0 0.0
2016-Feb-08 11:14N 36°09' W 005°22'0 0.0
2016-Feb-08 10:26N 36°09' W 005°22'0 0.0
2016-Feb-08 09:23N 36°09' W 005°22'0 0.0
2016-Feb-08 07:20N 36°09' W 005°22'2 3.0
2016-Feb-08 06:33N 36°06' W 005°22'3 3.4
2016-Feb-08 05:34N 36°03' W 005°21'9 9.2
2016-Feb-08 04:33N 35°57' W 005°30'  
2016-Feb-05 10:14N 28°51' W 012°50'  
2016-Jan-29 23:30N 09°42' W 016°07'18 8.9
2016-Jan-29 21:32N 09°28' W 015°55'9 8.9
2016-Jan-29 20:33N 09°22' W 015°49'9 8.6
2016-Jan-29 19:33N 09°15' W 015°44'  
Track history (hours):
 
Tides and Currents Weather Stations Pressure Air Temp Water Temp Dewpoint Dewpoint Depression Visibility Wind Speed Wind Dir Waves Ship Positions

Liberta

Last reported at 2016-Feb-08 14:33 UTC. Time now 2016-Feb-09 20:41 UTC.
Position N 35°57' W 005°08'.

Length 138 m; draft 4.9 m.

Type: Cargo ship. MMSI: 305043000.

Date/timePositionNaut miles runAvg speedWind from/ knotsBaromVisibWave heightAir tempDewpointWater temp
2016-Feb-08 14:33N 35°57' W 005°08'1110.8
2016-Feb-08 13:34N 36°02' W 005°19'7 5.0
2016-Feb-08 12:11N 36°09' W 005°22'0 0.0
2016-Feb-08 11:14N 36°09' W 005°22'0 0.0
2016-Feb-08 10:26N 36°09' W 005°22'0 0.0
2016-Feb-08 09:23N 36°09' W 005°22'0 0.0
2016-Feb-08 07:20N 36°09' W 005°22'2 3.0
2016-Feb-08 06:33N 36°06' W 005°22'3 3.4
2016-Feb-08 05:34N 36°03' W 005°21'9 9.2
2016-Feb-08 04:33N 35°57' W 005°30'  
2016-Feb-05 10:14N 28°51' W 012°50'  
2016-Jan-29 23:30N 09°42' W 016°07'18 8.9
2016-Jan-29 21:32N 09°28' W 015°55'9 8.9
2016-Jan-29 20:33N 09°22' W 015°49'9 8.6
2016-Jan-29 19:33N 09°15' W 015°44'  

Dump ship's entire track history